createdAt,value
2019-03-19T00:00:22.205Z,100827.16
2019-03-19T00:02:53.202Z,100827.72
2019-03-19T00:05:34.409Z,100826.00
2019-03-19T00:08:13.611Z,100828.47
2019-03-19T00:10:43.937Z,100836.94
2019-03-19T00:13:16.642Z,100841.35
2019-03-19T00:15:51.831Z,100839.98
2019-03-19T00:18:22.872Z,100838.70
2019-03-19T00:20:53.753Z,100840.95
2019-03-19T00:23:26.127Z,100844.52
2019-03-19T00:25:57.204Z,100849.88
2019-03-19T00:28:29.961Z,100847.09
2019-03-19T00:31:03.757Z,100851.80
2019-03-19T00:33:34.766Z,100854.92
2019-03-19T00:36:05.809Z,100856.13
2019-03-19T00:38:41.187Z,100855.38
2019-03-19T00:41:12.527Z,100855.48
2019-03-19T00:43:46.711Z,100863.64
2019-03-19T00:46:24.585Z,100867.73
2019-03-19T00:48:55.560Z,100866.16
2019-03-19T00:51:26.470Z,100872.20
2019-03-19T00:53:57.475Z,100878.64
2019-03-19T00:56:32.673Z,100862.75
2019-03-19T00:59:09.622Z,100875.55
2019-03-19T01:01:40.594Z,100876.73
2019-03-19T01:04:11.528Z,100874.14
2019-03-19T01:06:42.450Z,100878.85
2019-03-19T01:09:13.206Z,100878.25
2019-03-19T01:11:50.205Z,100882.33
2019-03-19T01:14:21.573Z,100883.30
2019-03-19T01:16:55.562Z,100879.88
2019-03-19T01:19:26.505Z,100878.77
2019-03-19T01:22:06.330Z,100873.73
2019-03-19T01:24:38.808Z,100878.58
2019-03-19T01:27:09.645Z,100883.70
2019-03-19T01:29:45.387Z,100885.70
2019-03-19T01:32:16.705Z,100877.90
2019-03-19T01:34:47.557Z,100879.66
2019-03-19T01:37:21.415Z,100878.38
2019-03-19T01:39:52.288Z,100887.58
2019-03-19T01:42:35.675Z,100883.36
2019-03-19T01:45:10.147Z,100885.33
2019-03-19T01:47:41.039Z,100886.43
2019-03-19T01:50:16.457Z,100886.68
2019-03-19T01:52:58.449Z,100888.37
2019-03-19T01:55:33.896Z,100889.72
2019-03-19T01:58:07.666Z,100896.36
2019-03-19T02:00:50.959Z,100899.58
2019-03-19T02:03:24.596Z,100913.84
2019-03-19T02:06:12.033Z,100906.72
2019-03-19T02:08:36.173Z,100906.16
2019-03-19T02:11:13.289Z,100905.47
2019-03-19T02:13:49.993Z,100904.27
2019-03-19T02:16:37.274Z,100905.98
2019-03-19T02:19:22.279Z,100914.94
2019-03-19T02:22:27.141Z,100913.11
2019-03-19T02:24:39.719Z,100916.20
2019-03-19T02:27:25.132Z,100921.34
2019-03-19T02:30:06.151Z,100913.17
2019-03-19T02:32:46.634Z,100921.73
2019-03-19T02:35:23.885Z,100923.49
2019-03-19T02:37:59.978Z,100927.94
2019-03-19T02:40:37.324Z,100930.19
2019-03-19T02:43:11.107Z,100935.94
2019-03-19T02:45:45.502Z,100941.86
2019-03-19T02:48:34.013Z,100946.38
2019-03-19T02:51:12.923Z,100945.95
2019-03-19T02:53:49.639Z,100946.42
2019-03-19T02:56:32.979Z,100945.41
2019-03-19T02:59:06.387Z,100945.70
2019-03-19T03:01:49.256Z,100958.29
2019-03-19T03:04:26.010Z,100949.50
2019-03-19T03:07:04.081Z,100955.41
2019-03-19T03:09:39.404Z,100950.67
2019-03-19T03:12:14.482Z,100941.11
2019-03-19T03:14:49.507Z,100949.74
2019-03-19T03:17:24.213Z,100960.59
2019-03-19T03:19:56.266Z,100958.97
2019-03-19T03:22:31.257Z,100965.81
2019-03-19T03:25:12.834Z,100968.78
2019-03-19T03:27:43.813Z,100966.70
2019-03-19T03:30:14.960Z,100971.01
2019-03-19T03:32:45.945Z,100977.60
2019-03-19T03:35:16.964Z,100982.53
2019-03-19T03:37:51.152Z,100990.98
2019-03-19T03:40:21.963Z,100996.56
2019-03-19T03:42:52.950Z,101001.88
2019-03-19T03:45:28.121Z,101004.28
2019-03-19T03:47:59.082Z,101000.08
2019-03-19T03:50:30.185Z,101010.83
2019-03-19T03:53:01.164Z,101016.95
2019-03-19T03:55:36.499Z,101017.55
2019-03-19T03:58:08.946Z,101023.50
2019-03-19T04:00:40.531Z,101018.05
2019-03-19T04:03:12.487Z,101015.64
2019-03-19T04:05:45.733Z,101017.75
2019-03-19T04:08:16.494Z,101024.19
2019-03-19T04:10:47.277Z,101025.28
2019-03-19T04:13:18.402Z,101027.27
2019-03-19T04:15:50.774Z,101030.15
2019-03-19T04:18:21.631Z,101041.17
2019-03-19T04:20:52.793Z,101033.05
2019-03-19T04:23:23.973Z,101036.09
2019-03-19T04:25:55.359Z,101038.92
2019-03-19T04:28:28.204Z,101039.03
2019-03-19T04:30:59.254Z,101042.50
2019-03-19T04:33:42.100Z,101039.77
2019-03-19T04:36:13.378Z,101035.02
2019-03-19T04:38:44.583Z,101035.34
2019-03-19T04:41:16.809Z,101040.69
2019-03-19T04:43:49.319Z,101051.30
2019-03-19T04:46:20.537Z,101054.27
2019-03-19T04:49:03.694Z,101044.09
2019-03-19T04:51:35.650Z,101056.85
2019-03-19T04:54:12.735Z,101068.94
2019-03-19T04:57:04.718Z,101071.78
2019-03-19T04:59:31.435Z,101074.34
2019-03-19T05:02:22.085Z,101065.05
2019-03-19T05:04:52.981Z,101068.14
2019-03-19T05:07:24.130Z,101080.14
2019-03-19T05:09:55.275Z,101081.59
2019-03-19T05:12:27.337Z,101079.53
2019-03-19T05:15:06.616Z,101079.03
2019-03-19T05:17:37.637Z,101072.27
2019-03-19T05:20:12.985Z,101083.95
2019-03-19T05:22:43.896Z,101084.75
2019-03-19T05:25:14.787Z,101091.02
2019-03-19T05:27:47.022Z,101093.13
2019-03-19T05:30:20.593Z,101096.59
2019-03-19T05:32:52.479Z,101092.10
2019-03-19T05:35:26.419Z,101094.84
2019-03-19T05:37:57.539Z,101100.75
2019-03-19T05:40:35.715Z,101105.95
2019-03-19T05:43:13.048Z,101105.64
2019-03-19T05:45:46.089Z,101106.02
2019-03-19T05:48:32.267Z,101104.91
2019-03-19T05:51:11.159Z,101113.10
2019-03-19T05:54:02.087Z,101114.25
2019-03-19T05:56:37.702Z,101118.45
2019-03-19T05:59:21.358Z,101125.05
2019-03-19T06:02:00.762Z,101127.84
2019-03-19T06:04:36.362Z,101128.52
2019-03-19T06:12:12.106Z,101135.70
2019-03-19T06:14:42.876Z,101140.19
2019-03-19T06:17:13.612Z,101133.92
2019-03-19T06:19:44.960Z,101138.03
2019-03-19T06:22:16.984Z,101140.72
2019-03-19T06:24:48.503Z,101140.05
2019-03-19T06:27:21.094Z,101151.43
2019-03-19T06:29:53.311Z,101157.36
2019-03-19T06:32:26.701Z,101159.96
2019-03-19T06:34:58.998Z,101163.45
2019-03-19T06:37:30.158Z,101160.41
2019-03-19T06:40:01.138Z,101162.53
2019-03-19T06:42:33.231Z,101169.98
2019-03-19T06:45:12.026Z,101160.88
2019-03-19T06:47:47.089Z,101165.06
2019-03-19T06:50:32.666Z,101171.84
2019-03-19T06:53:04.547Z,101173.92
2019-03-19T06:55:44.552Z,101175.36
2019-03-19T06:58:26.213Z,101174.79
2019-03-19T07:00:58.919Z,101170.73
2019-03-19T07:03:32.284Z,101185.96
2019-03-19T07:06:05.623Z,101187.64
2019-03-19T07:08:36.561Z,101193.95
2019-03-19T07:11:07.523Z,101196.27
2019-03-19T07:13:38.780Z,101200.25
2019-03-19T07:16:12.208Z,101205.84
2019-03-19T07:18:47.181Z,101204.39
2019-03-19T07:21:20.556Z,101211.52
2019-03-19T07:23:58.234Z,101209.70
2019-03-19T07:26:31.238Z,101207.42
2019-03-19T07:29:03.252Z,101216.16
2019-03-19T07:31:49.860Z,101206.83
2019-03-19T07:34:29.783Z,101207.34
2019-03-19T07:37:00.820Z,101209.71
2019-03-19T07:40:01.119Z,101210.41
2019-03-19T07:42:36.397Z,101211.94
2019-03-19T07:45:46.139Z,101207.59
2019-03-19T07:48:34.377Z,101206.45
2019-03-19T07:51:07.707Z,101209.33
2019-03-19T07:53:50.447Z,101212.47
2019-03-19T07:56:21.244Z,101213.70
2019-03-19T07:58:58.916Z,101215.53
2019-03-19T08:01:34.255Z,101216.60
2019-03-19T08:04:12.005Z,101227.73
2019-03-19T08:07:04.620Z,101234.41
2019-03-19T08:09:48.320Z,101233.53
2019-03-19T08:12:26.223Z,101230.42
2019-03-19T08:15:01.310Z,101231.98
2019-03-19T08:17:36.658Z,101243.79
2019-03-19T08:20:14.222Z,101246.63
2019-03-19T08:22:54.770Z,101249.66
2019-03-19T08:25:29.673Z,101242.14
2019-03-19T08:28:00.375Z,101242.75
2019-03-19T08:30:33.243Z,101250.20
2019-03-19T08:33:10.493Z,101251.16
2019-03-19T08:35:43.900Z,101252.92
2019-03-19T08:38:27.636Z,101252.98
2019-03-19T08:41:02.948Z,101266.66
2019-03-19T08:43:43.036Z,101263.56
2019-03-19T08:46:20.245Z,101265.95
2019-03-19T08:48:56.680Z,101268.56
2019-03-19T08:51:27.936Z,101269.89
2019-03-19T08:54:01.656Z,101269.91
2019-03-19T08:56:38.008Z,101273.65
2019-03-19T08:59:26.961Z,101268.30
2019-03-19T09:02:02.719Z,101278.15
2019-03-19T09:04:40.347Z,101279.02
2019-03-19T09:07:22.691Z,101275.20
2019-03-19T09:09:55.587Z,101286.27
2019-03-19T09:12:38.840Z,101299.16
2019-03-19T09:15:44.450Z,101312.69
2019-03-19T09:18:01.708Z,101326.38
2019-03-19T09:20:42.732Z,101330.32
2019-03-19T09:23:30.533Z,101333.91
2019-03-19T09:26:12.918Z,101334.31
2019-03-19T09:28:47.821Z,101340.16
2019-03-19T09:31:25.564Z,101335.27
2019-03-19T09:34:02.260Z,101335.41
2019-03-19T09:36:41.036Z,101334.27
2019-03-19T09:39:31.106Z,101338.83
2019-03-19T09:42:15.800Z,101332.31
2019-03-19T09:44:58.515Z,101336.33
2019-03-19T09:47:35.870Z,101346.56
2019-03-19T09:50:07.721Z,101351.27
2019-03-19T09:52:50.033Z,101347.67
2019-03-19T09:55:37.683Z,101347.95
2019-03-19T09:58:47.645Z,101350.57
2019-03-19T10:01:28.860Z,101348.95
2019-03-19T10:04:06.276Z,101340.48
2019-03-19T10:06:48.613Z,101334.25
2019-03-19T10:09:29.651Z,101330.11
2019-03-19T10:12:21.355Z,101340.08
2019-03-19T10:14:59.854Z,101346.78
2019-03-19T10:17:34.266Z,101352.23
2019-03-19T10:20:13.378Z,101347.27
2019-03-19T10:22:48.094Z,101343.34
2019-03-19T10:25:21.588Z,101346.87
2019-03-19T10:28:07.959Z,101342.70
2019-03-19T10:30:38.477Z,101339.69
2019-03-19T10:33:15.894Z,101344.26
2019-03-19T10:35:47.124Z,101339.69
2019-03-19T10:38:20.327Z,101334.59
2019-03-19T10:41:03.295Z,101337.03
2019-03-19T10:43:40.567Z,101339.81
2019-03-19T10:46:10.861Z,101332.73
2019-03-19T10:48:53.006Z,101331.84
2019-03-19T10:51:49.023Z,101332.62
2019-03-19T10:54:19.875Z,101332.00
2019-03-19T10:57:05.128Z,101333.89
2019-03-19T10:59:49.212Z,101333.66
2019-03-19T11:02:23.728Z,101326.44
2019-03-19T11:05:02.022Z,101315.01
2019-03-19T11:07:36.894Z,101318.12
2019-03-19T11:10:33.215Z,101322.16
2019-03-19T11:13:43.375Z,101315.52
2019-03-19T11:16:27.442Z,101323.76
2019-03-19T11:19:03.899Z,101314.28
2019-03-19T11:21:35.416Z,101311.05
2019-03-19T11:24:09.612Z,101318.23
2019-03-19T11:26:41.841Z,101323.88
2019-03-19T11:29:13.025Z,101321.36
2019-03-19T11:35:37.097Z,101331.20
2019-03-19T11:38:00.253Z,101332.14
2019-03-19T11:39:51.425Z,101343.53
2019-03-19T11:42:34.541Z,101348.49
2019-03-19T11:45:08.556Z,101356.14
2019-03-19T11:47:41.610Z,101368.66
2019-03-19T11:50:50.548Z,101376.47
2019-03-19T11:53:29.784Z,101384.59
2019-03-19T11:56:01.851Z,101387.03
2019-03-19T11:58:39.024Z,101383.31
2019-03-19T12:01:13.013Z,101372.63
2019-03-19T12:03:44.412Z,101378.12
2019-03-19T12:06:17.292Z,101369.77
2019-03-19T12:08:50.551Z,101372.80
2019-03-19T12:11:21.348Z,101375.19
2019-03-19T12:13:58.007Z,101383.84
2019-03-19T12:16:29.242Z,101384.41
2019-03-19T12:19:00.387Z,101382.61
2019-03-19T12:21:31.222Z,101381.81
2019-03-19T12:24:02.980Z,101377.69
2019-03-19T12:26:35.458Z,101381.44
2019-03-19T12:29:09.629Z,101386.02
2019-03-19T12:35:17.910Z,101386.73
2019-03-19T12:37:48.991Z,101390.52
2019-03-19T12:40:19.792Z,101389.39
2019-03-19T12:42:54.275Z,101381.72
2019-03-19T12:45:38.220Z,101385.12
2019-03-19T12:48:46.619Z,101379.64
2019-03-19T12:51:06.330Z,101382.69
2019-03-19T12:53:40.146Z,101373.50
2019-03-19T12:56:24.490Z,101384.88
2019-03-19T12:58:59.503Z,101392.63
2019-03-19T13:01:52.078Z,101389.63
2019-03-19T13:04:20.332Z,101388.98
2019-03-19T13:06:57.288Z,101382.49
2019-03-19T13:09:39.717Z,101390.26
2019-03-19T13:12:14.715Z,101392.92
2019-03-19T13:14:50.917Z,101390.12
2019-03-19T13:17:25.250Z,101378.11
2019-03-19T13:19:57.915Z,101372.34
2019-03-19T13:22:30.982Z,101374.07
2019-03-19T13:25:02.249Z,101374.39
2019-03-19T13:27:33.308Z,101373.41
2019-03-19T13:30:06.696Z,101367.03
2019-03-19T13:32:38.005Z,101364.36
2019-03-19T13:35:13.366Z,101370.30
2019-03-19T13:37:48.364Z,101371.93
2019-03-19T13:40:30.359Z,101368.23
2019-03-19T13:43:18.704Z,101359.75
2019-03-19T13:46:06.683Z,101366.41
2019-03-19T13:49:28.484Z,101367.36
2019-03-19T13:52:15.997Z,101369.63
2019-03-19T13:54:48.128Z,101363.96
2019-03-19T13:57:19.079Z,101361.19
2019-03-19T13:59:55.038Z,101361.09
2019-03-19T14:02:44.233Z,101357.80
2019-03-19T14:05:30.227Z,101362.10
2019-03-19T14:08:12.904Z,101363.06
2019-03-19T14:10:47.767Z,101361.80
2019-03-19T14:13:18.733Z,101364.05
2019-03-19T14:15:52.365Z,101375.07
2019-03-19T14:18:37.003Z,101373.70
2019-03-19T14:21:32.338Z,101381.70
2019-03-19T14:24:22.454Z,101375.56
2019-03-19T14:27:03.572Z,101378.17
2019-03-19T14:29:43.487Z,101386.35
2019-03-19T14:32:20.126Z,101378.45
2019-03-19T14:34:59.645Z,101376.91
2019-03-19T14:37:36.985Z,101384.75
2019-03-19T14:40:17.195Z,101381.44
2019-03-19T14:43:01.676Z,101388.40
2019-03-19T14:45:37.361Z,101394.64
2019-03-19T14:51:19.305Z,101391.47
2019-03-19T14:53:59.316Z,101394.14
2019-03-19T14:56:33.507Z,101398.45
2019-03-19T14:59:22.879Z,101396.73
2019-03-19T15:02:04.672Z,101404.07
2019-03-19T15:04:36.791Z,101398.14
2019-03-19T15:07:13.070Z,101401.47
2019-03-19T15:09:58.531Z,101405.88
2019-03-19T15:12:42.951Z,101403.73
2019-03-19T15:15:25.829Z,101403.33
2019-03-19T15:17:59.528Z,101403.18
2019-03-19T15:20:31.900Z,101414.45
2019-03-19T15:23:03.267Z,101408.72
2019-03-19T15:25:54.287Z,101402.92
2019-03-19T15:28:33.430Z,101402.59
2019-03-19T15:31:11.059Z,101405.67
2019-03-19T15:33:46.025Z,101411.86
2019-03-19T15:36:25.036Z,101408.71
2019-03-19T15:39:01.382Z,101403.17
2019-03-19T15:41:34.010Z,101407.70
2019-03-19T15:44:05.590Z,101405.26
2019-03-19T15:46:39.639Z,101408.56
2019-03-19T15:49:13.808Z,101411.39
2019-03-19T15:51:49.481Z,101413.84
2019-03-19T15:54:22.707Z,101412.35
2019-03-19T15:57:02.945Z,101414.62
2019-03-19T15:59:40.030Z,101415.86
2019-03-19T16:02:11.755Z,101424.94
2019-03-19T16:04:45.356Z,101430.64
2019-03-19T16:07:26.148Z,101439.08
2019-03-19T16:10:06.172Z,101433.95
2019-03-19T16:12:40.295Z,101441.84
2019-03-19T16:15:14.920Z,101443.09
2019-03-19T16:17:45.914Z,101444.99
2019-03-19T16:20:18.911Z,101452.62
2019-03-19T16:22:52.888Z,101456.80
2019-03-19T16:25:26.456Z,101453.48
2019-03-19T16:28:10.750Z,101457.05
2019-03-19T16:30:49.985Z,101458.59
2019-03-19T16:33:26.240Z,101462.23
2019-03-19T16:36:00.408Z,101463.34
2019-03-19T16:38:39.595Z,101465.22
2019-03-19T16:41:17.142Z,101467.25
2019-03-19T16:43:53.045Z,101469.30
2019-03-19T16:46:24.389Z,101464.27
2019-03-19T16:48:58.492Z,101466.01
2019-03-19T16:51:35.658Z,101474.97
2019-03-19T16:54:10.924Z,101477.63
2019-03-19T16:56:41.761Z,101480.41
2019-03-19T16:59:30.606Z,101485.66
2019-03-19T17:02:03.970Z,101486.92
2019-03-19T17:04:34.842Z,101486.97
2019-03-19T17:07:11.066Z,101486.57
2019-03-19T17:09:42.563Z,101488.42
2019-03-19T17:12:13.616Z,101487.78
2019-03-19T17:14:46.669Z,101497.66
2019-03-19T17:17:25.337Z,101498.81
2019-03-19T17:19:59.684Z,101502.58
2019-03-19T17:22:43.681Z,101503.19
2019-03-19T17:25:18.403Z,101515.14
2019-03-19T17:27:51.029Z,101523.86
2019-03-19T17:30:24.382Z,101521.61
2019-03-19T17:34:22.495Z,101513.98
2019-03-19T17:36:17.411Z,101523.17
2019-03-19T17:38:53.253Z,101524.11
2019-03-19T17:41:32.874Z,101525.88
2019-03-19T17:44:21.889Z,101524.46
2019-03-19T17:47:37.269Z,101533.31
2019-03-19T17:49:52.161Z,101531.49
2019-03-19T17:52:35.287Z,101533.48
2019-03-19T17:55:09.144Z,101538.49
2019-03-19T17:57:39.972Z,101545.89
2019-03-19T18:00:18.150Z,101550.12
2019-03-19T18:02:52.562Z,101548.52
2019-03-19T18:05:23.285Z,101549.24
2019-03-19T18:07:56.561Z,101548.30
2019-03-19T18:10:30.950Z,101551.84
2019-03-19T18:13:03.750Z,101556.80
2019-03-19T18:15:41.568Z,101554.58
2019-03-19T18:18:15.434Z,101557.13
2019-03-19T18:20:52.719Z,101560.81
2019-03-19T18:23:32.294Z,101559.01
2019-03-19T18:26:09.525Z,101564.50
2019-03-19T18:28:54.910Z,101565.77
2019-03-19T18:31:38.027Z,101568.17
2019-03-19T18:34:18.995Z,101572.89
2019-03-19T18:36:59.381Z,101578.10
2019-03-19T18:39:26.715Z,101576.47
2019-03-19T18:42:10.133Z,101580.85
2019-03-19T18:44:55.146Z,101581.90
2019-03-19T18:47:27.521Z,101584.73
2019-03-19T18:50:05.207Z,101588.33
2019-03-19T18:56:12.922Z,101602.30
2019-03-19T18:58:56.408Z,101596.80
2019-03-19T19:02:04.929Z,101595.56
2019-03-19T19:05:29.859Z,101597.16
2019-03-19T19:08:20.669Z,101603.99
2019-03-19T19:10:59.630Z,101605.80
2019-03-19T19:13:31.027Z,101613.08
2019-03-19T19:16:05.121Z,101613.75
2019-03-19T19:18:39.061Z,101615.56
2019-03-19T19:22:40.770Z,101612.88
2019-03-19T19:24:18.039Z,101613.87
2019-03-19T19:28:46.818Z,101615.63
2019-03-19T19:29:43.687Z,101614.46
2019-03-19T19:32:37.078Z,101619.16
2019-03-19T19:35:18.327Z,101629.23
2019-03-19T19:37:55.694Z,101633.30
2019-03-19T19:40:29.753Z,101640.96
2019-03-19T19:43:01.001Z,101643.69
2019-03-19T19:45:40.250Z,101646.87
2019-03-19T19:48:15.058Z,101649.77
2019-03-19T19:50:53.486Z,101654.48
2019-03-19T19:53:32.717Z,101646.34
2019-03-19T19:56:07.692Z,101657.94
2019-03-19T19:58:41.650Z,101656.77
2019-03-19T20:01:12.693Z,101655.56
2019-03-19T20:03:57.078Z,101661.36
2019-03-19T20:06:28.105Z,101662.97
2019-03-19T20:09:03.639Z,101665.27
2019-03-19T20:11:45.748Z,101659.28
2019-03-19T20:15:11.045Z,101664.61
2019-03-19T20:17:53.673Z,101664.94
2019-03-19T20:20:27.652Z,101664.81
2019-03-19T20:23:35.814Z,101673.47
2019-03-19T20:25:51.778Z,101671.45
2019-03-19T20:28:24.201Z,101675.19
2019-03-19T20:31:03.284Z,101676.77
2019-03-19T20:33:34.638Z,101678.06
2019-03-19T20:36:08.558Z,101680.39
2019-03-19T20:38:45.622Z,101691.63
2019-03-19T20:41:40.139Z,101696.36
2019-03-19T20:44:13.633Z,101699.33
2019-03-19T20:47:09.626Z,101700.84
2019-03-19T20:49:47.520Z,101709.05
2019-03-19T20:52:19.193Z,101704.20
2019-03-19T20:54:52.462Z,101712.95
2019-03-19T20:57:27.011Z,101709.38
2019-03-19T20:59:57.832Z,101720.89
2019-03-19T21:02:29.058Z,101722.69
2019-03-19T21:05:02.894Z,101718.64
2019-03-19T21:07:33.756Z,101716.59
2019-03-19T21:10:09.784Z,101729.68
2019-03-19T21:13:07.227Z,101725.05
2019-03-19T21:15:39.876Z,101730.81
2019-03-19T21:18:18.657Z,101731.11
2019-03-19T21:21:14.773Z,101732.38
2019-03-19T21:23:32.974Z,101729.98
2019-03-19T21:26:08.639Z,101733.06
2019-03-19T21:28:41.891Z,101731.75
2019-03-19T21:31:14.465Z,101738.09
2019-03-19T21:33:51.375Z,101731.72
2019-03-19T21:36:28.750Z,101735.21
2019-03-19T21:38:59.632Z,101733.06
2019-03-19T21:41:30.479Z,101736.66
2019-03-19T21:44:14.916Z,101734.94
2019-03-19T21:46:54.233Z,101741.52
2019-03-19T21:49:34.522Z,101750.09
2019-03-19T21:52:02.201Z,101749.05
2019-03-19T21:54:45.894Z,101743.81
2019-03-19T21:57:28.867Z,101750.96
2019-03-19T22:00:12.096Z,101749.56
2019-03-19T22:02:34.498Z,101758.83
2019-03-19T22:05:13.419Z,101764.95
2019-03-19T22:07:56.025Z,101764.20
2019-03-19T22:10:30.774Z,101757.89
2019-03-19T22:13:08.999Z,101759.39
2019-03-19T22:15:50.945Z,101761.54
2019-03-19T22:18:24.077Z,101763.62
2019-03-19T22:20:59.188Z,101761.18
2019-03-19T22:23:31.895Z,101761.34
2019-03-19T22:26:04.435Z,101770.05
2019-03-19T22:28:35.615Z,101770.52
2019-03-19T22:31:06.974Z,101770.38
2019-03-19T22:33:41.968Z,101770.95
2019-03-19T22:36:16.303Z,101774.53
2019-03-19T22:38:47.216Z,101773.88
2019-03-19T22:41:19.900Z,101774.00
2019-03-19T22:43:52.120Z,101778.38
2019-03-19T22:46:31.832Z,101777.08
2019-03-19T22:49:02.663Z,101780.16
2019-03-19T22:51:33.431Z,101787.39
2019-03-19T22:54:20.445Z,101785.22
2019-03-19T22:56:41.633Z,101792.02
2019-03-19T22:59:20.468Z,101794.09
2019-03-19T23:02:01.650Z,101790.55
2019-03-19T23:04:34.115Z,101794.65
2019-03-19T23:07:05.120Z,101800.14
2019-03-19T23:09:37.563Z,101797.83
2019-03-19T23:12:08.546Z,101801.23
2019-03-19T23:14:43.435Z,101807.02
2019-03-19T23:17:16.588Z,101807.71
2019-03-19T23:19:50.754Z,101812.14
2019-03-19T23:22:22.705Z,101816.66
2019-03-19T23:25:01.057Z,101815.56
2019-03-19T23:27:31.780Z,101811.33
2019-03-19T23:30:02.652Z,101819.54
2019-03-19T23:32:34.397Z,101815.97
2019-03-19T23:35:07.389Z,101818.44
2019-03-19T23:37:38.064Z,101819.06
2019-03-19T23:40:11.524Z,101826.12
2019-03-19T23:42:44.410Z,101821.53
2019-03-19T23:45:15.469Z,101818.41
2019-03-19T23:47:46.524Z,101818.41
2019-03-19T23:50:20.261Z,101826.37
2019-03-19T23:52:51.967Z,101824.41
2019-03-19T23:55:23.008Z,101828.92
2019-03-19T23:57:54.083Z,101828.81
